Time,TemperatureF,DewpointF,PressureIn,WindDirection,WindDirectionDegrees,WindSpeedMPH,WindSpeedGustMPH,Humidity,HourlyPrecipIn,Conditions,Clouds,dailyrainin,SoftwareType,DateUTC
2013-07-23 00:00:00,72.4,51.0,29.82,SSW,202,5.0,12.0,47,0.00,,---,0.00,VWS V14.01,2013-07-23 07:00:00,
2013-07-23 00:15:00,72.9,52.6,29.82,West,270,4.0,13.0,49,0.00,,---,0.00,VWS V14.01,2013-07-23 07:15:00,
2013-07-23 00:30:00,73.0,53.3,29.85,East,90,3.0,14.0,50,0.00,,---,0.00,VWS V14.01,2013-07-23 07:30:00,
2013-07-23 00:45:00,72.9,52.6,29.85,ENE,68,4.0,11.0,49,0.00,,---,0.00,VWS V14.01,2013-07-23 07:45:00,
2013-07-23 01:00:00,72.8,53.1,29.84,ENE,68,4.0,11.0,50,0.00,,---,0.00,VWS V14.01,2013-07-23 08:00:00,
2013-07-23 01:15:00,72.4,53.3,29.84,East,90,4.0,9.0,51,0.00,,---,0.00,VWS V14.01,2013-07-23 08:15:00,
2013-07-23 01:30:00,71.4,53.9,29.84,ESE,112,4.0,12.0,54,0.00,,---,0.00,VWS V14.01,2013-07-23 08:30:00,
2013-07-23 01:45:00,70.3,54.4,29.83,SSE,158,5.0,12.0,57,0.00,,---,0.00,VWS V14.01,2013-07-23 08:45:00,
2013-07-23 02:00:00,69.6,55.1,29.82,SSW,202,5.0,8.0,60,0.00,,---,0.00,VWS V14.01,2013-07-23 09:00:00,
2013-07-23 02:15:00,69.3,54.8,29.81,South,180,2.0,7.0,60,0.00,,---,0.00,VWS V14.01,2013-07-23 09:15:00,
2013-07-23 02:30:00,69.2,55.2,29.80,SSW,202,0.0,5.0,61,0.00,,---,0.00,VWS V14.01,2013-07-23 09:30:00,
2013-07-23 02:45:00,69.0,55.0,29.82,SW,225,0.0,3.0,61,0.00,,---,0.00,VWS V14.01,2013-07-23 09:45:00,
2013-07-23 03:00:00,69.0,55.0,29.81,West,270,2.0,8.0,61,0.00,,---,0.00,VWS V14.01,2013-07-23 10:00:00,
2013-07-23 03:15:00,68.9,55.8,29.83,South,180,0.0,4.0,63,0.00,,---,0.00,VWS V14.01,2013-07-23 10:15:00,
2013-07-23 03:30:00,68.8,55.3,29.84,South,180,0.0,0.0,62,0.00,,---,0.00,VWS V14.01,2013-07-23 10:30:00,
2013-07-23 03:45:00,68.8,54.8,29.86,South,180,0.0,0.0,61,0.00,,---,0.00,VWS V14.01,2013-07-23 10:45:00,
2013-07-23 04:00:00,68.9,56.2,29.87,SE,135,0.0,4.0,64,0.00,,---,0.00,VWS V14.01,2013-07-23 11:00:00,
2013-07-23 04:15:00,68.4,56.2,29.87,East,90,1.0,5.0,65,0.00,,---,0.00,VWS V14.01,2013-07-23 11:15:00,
2013-07-23 04:30:00,67.9,56.5,29.85,East,90,0.0,2.0,67,0.00,,---,0.00,VWS V14.01,2013-07-23 11:30:00,
2013-07-23 04:45:00,67.6,55.8,29.85,WSW,248,2.0,6.0,66,0.00,,---,0.00,VWS V14.01,2013-07-23 11:45:00,
2013-07-23 05:00:00,67.5,57.0,29.88,West,270,0.0,1.0,69,0.00,,---,0.00,VWS V14.01,2013-07-23 12:00:00,
2013-07-23 05:15:00,66.9,56.4,29.87,SSW,202,1.0,7.0,69,0.00,,---,0.00,VWS V14.01,2013-07-23 12:15:00,
2013-07-23 05:30:00,66.9,55.6,29.88,SSW,202,4.0,8.0,67,0.00,,---,0.00,VWS V14.01,2013-07-23 12:30:00,
2013-07-23 05:45:00,66.9,55.2,29.87,West,270,2.0,5.0,66,0.00,,---,0.00,VWS V14.01,2013-07-23 12:45:00,
2013-07-23 06:00:00,67.5,57.0,29.88,West,270,0.0,1.0,69,0.00,,---,0.00,VWS V14.01,2013-07-23 13:00:00,
2013-07-23 06:09:00,67.3,57.2,29.89,ENE,73,2.0,2.0,70,0.00,,---,0.00,VWS V14.01,2013-07-23 13:09:00,
2013-07-23 06:14:00,67.1,55.8,29.88,ENE,73,0.0,2.0,67,0.00,,---,0.00,VWS V14.01,2013-07-23 13:14:00,
2013-07-23 06:15:00,67.1,56.6,29.88,ENE,73,0.0,2.0,69,0.00,,---,0.00,VWS V14.01,2013-07-23 13:15:00,
2013-07-23 06:19:00,67.0,56.1,29.88,East,90,0.0,0.0,68,0.00,,---,0.00,VWS V14.01,2013-07-23 13:19:00,
2013-07-23 06:23:00,66.8,55.9,29.88,East,93,0.0,0.0,68,0.00,,---,0.00,VWS V14.01,2013-07-23 13:23:00,
2013-07-23 06:24:00,66.8,55.9,29.88,East,93,0.0,0.0,68,0.00,,---,0.00,VWS V14.01,2013-07-23 13:24:00,
2013-07-23 06:29:00,66.7,55.8,29.88,East,92,0.0,0.0,68,0.00,,---,0.00,VWS V14.01,2013-07-23 13:29:00,
2013-07-23 06:30:00,66.7,55.8,29.88,East,92,0.0,0.0,68,0.00,,---,0.00,VWS V14.01,2013-07-23 13:30:00,
2013-07-23 06:33:00,66.7,55.4,29.88,East,92,0.0,0.0,67,0.00,,---,0.00,VWS V14.01,2013-07-23 13:33:00,
2013-07-23 06:38:00,66.6,55.7,29.87,East,92,0.0,0.0,68,0.00,,---,0.00,VWS V14.01,2013-07-23 13:38:00,
2013-07-23 06:43:00,66.6,55.3,29.87,East,92,0.0,0.0,67,0.00,,---,0.00,VWS V14.01,2013-07-23 13:43:00,
2013-07-23 06:45:00,66.6,55.3,29.87,East,92,0.0,0.0,67,0.00,,---,0.00,VWS V14.01,2013-07-23 13:45:00,
2013-07-23 06:48:00,66.7,55.4,29.87,East,92,0.0,0.0,67,0.00,,---,0.00,VWS V14.01,2013-07-23 13:48:00,
2013-07-23 06:53:00,66.8,55.5,29.87,East,92,0.0,0.0,67,0.00,,---,0.00,VWS V14.01,2013-07-23 13:53:00,
2013-07-23 06:58:00,67.0,55.3,29.87,East,92,0.0,0.0,66,0.00,,---,0.00,VWS V14.01,2013-07-23 13:58:00,
2013-07-23 07:00:00,67.1,55.4,29.87,East,92,0.0,0.0,66,0.00,,---,0.00,VWS V14.01,2013-07-23 14:00:00,
2013-07-23 07:03:00,67.3,55.2,29.87,East,92,0.0,0.0,65,0.00,,---,0.00,VWS V14.01,2013-07-23 14:03:00,
2013-07-23 07:08:00,67.7,55.5,29.87,ENE,65,1.0,7.0,65,0.00,,---,0.00,VWS V14.01,2013-07-23 14:08:00,
2013-07-23 07:13:00,68.1,55.9,29.88,ENE,65,5.0,8.0,65,0.00,,---,0.00,VWS V14.01,2013-07-23 14:13:00,
2013-07-23 07:15:00,68.3,55.7,29.88,ENE,65,3.0,8.0,64,0.00,,---,0.00,VWS V14.01,2013-07-23 14:15:00,
2013-07-23 07:18:00,68.5,56.3,29.88,East,84,1.0,5.0,65,0.00,,---,0.00,VWS V14.01,2013-07-23 14:18:00,
2013-07-23 07:23:00,68.8,56.6,29.89,East,89,0.0,5.0,65,0.00,,---,0.00,VWS V14.01,2013-07-23 14:23:00,
2013-07-23 07:28:00,69.0,55.9,29.89,ENE,66,1.0,5.0,63,0.00,,---,0.00,VWS V14.01,2013-07-23 14:28:00,
2013-07-23 07:30:00,69.3,55.7,29.89,ENE,69,2.0,5.0,62,0.00,,---,0.00,VWS V14.01,2013-07-23 14:30:00,
2013-07-23 07:33:00,69.5,55.9,29.89,East,80,0.0,4.0,62,0.00,,---,0.00,VWS V14.01,2013-07-23 14:33:00,
2013-07-23 07:38:00,70.0,57.7,29.89,East,84,1.0,4.0,65,0.00,,---,0.00,VWS V14.01,2013-07-23 14:38:00,
2013-07-23 07:43:00,70.3,56.7,29.90,East,82,3.0,4.0,62,0.00,,---,0.00,VWS V14.01,2013-07-23 14:43:00,
2013-07-23 07:45:00,70.4,56.3,29.90,ENE,76,0.0,5.0,61,0.00,,---,0.00,VWS V14.01,2013-07-23 14:45:00,
2013-07-23 07:48:00,70.6,56.1,29.89,ENE,76,1.0,1.0,60,0.00,,---,0.00,VWS V14.01,2013-07-23 14:48:00,
2013-07-23 07:53:00,70.8,57.2,29.89,SE,126,2.0,6.0,62,0.00,,---,0.00,VWS V14.01,2013-07-23 14:53:00,
2013-07-23 07:58:00,71.1,57.9,29.90,SE,126,5.0,6.0,63,0.00,,---,0.00,VWS V14.01,2013-07-23 14:58:00,
2013-07-23 08:00:00,71.1,57.9,29.90,SE,125,1.0,6.0,63,0.00,,---,0.00,VWS V14.01,2013-07-23 15:00:00,
2013-07-23 08:03:00,71.2,58.0,29.90,ESE,123,5.0,6.0,63,0.00,,---,0.00,VWS V14.01,2013-07-23 15:03:00,
2013-07-23 08:08:00,71.2,57.1,29.90,SE,124,1.0,7.0,61,0.00,,---,0.00,VWS V14.01,2013-07-23 15:08:00,
2013-07-23 08:13:00,71.2,57.1,29.90,ESE,123,0.0,7.0,61,0.00,,---,0.00,VWS V14.01,2013-07-23 15:13:00,
2013-07-23 08:15:00,71.2,57.1,29.90,ESE,122,1.0,7.0,61,0.00,,---,0.00,VWS V14.01,2013-07-23 15:15:00,
2013-07-23 08:18:00,71.3,57.2,29.90,ESE,122,1.0,2.0,61,0.00,,---,0.00,VWS V14.01,2013-07-23 15:18:00,
2013-07-23 08:23:00,71.3,57.6,29.90,ESE,122,0.0,2.0,62,0.00,,---,0.00,VWS V14.01,2013-07-23 15:23:00,
2013-07-23 08:28:00,71.4,57.7,29.90,ESE,122,0.0,2.0,62,0.00,,---,0.00,VWS V14.01,2013-07-23 15:28:00,
2013-07-23 08:30:00,71.6,57.9,29.90,ESE,122,0.0,2.0,62,0.00,,---,0.00,VWS V14.01,2013-07-23 15:30:00,
2013-07-23 08:33:00,71.7,58.0,29.91,ESE,122,0.0,0.0,62,0.00,,---,0.00,VWS V14.01,2013-07-23 15:33:00,
2013-07-23 08:38:00,72.0,57.8,29.91,ESE,122,0.0,2.0,61,0.00,,---,0.00,VWS V14.01,2013-07-23 15:38:00,
2013-07-23 08:43:00,72.3,57.2,29.90,ESE,108,1.0,4.0,59,0.00,,---,0.00,VWS V14.01,2013-07-23 15:43:00,
2013-07-23 08:45:00,72.5,56.9,29.90,ESE,108,0.0,4.0,58,0.00,,---,0.00,VWS V14.01,2013-07-23 15:45:00,
2013-07-23 08:48:00,72.7,57.1,29.90,ESE,104,0.0,2.0,58,0.00,,---,0.00,VWS V14.01,2013-07-23 15:48:00,
2013-07-23 08:53:00,73.4,56.8,29.90,North,350,2.0,6.0,56,0.00,,---,0.00,VWS V14.01,2013-07-23 15:53:00,
2013-07-23 08:58:00,74.0,56.8,29.90,North,350,0.0,6.0,55,0.00,,---,0.00,VWS V14.01,2013-07-23 15:58:00,
2013-07-23 09:00:00,74.4,57.2,29.90,North,350,0.0,6.0,55,0.00,,---,0.00,VWS V14.01,2013-07-23 16:00:00,
2013-07-23 09:03:00,74.6,56.9,29.90,North,350,0.0,1.0,54,0.00,,---,0.00,VWS V14.01,2013-07-23 16:03:00,
2013-07-23 09:08:00,75.3,58.0,29.90,NNW,327,1.0,4.0,55,0.00,,---,0.00,VWS V14.01,2013-07-23 16:08:00,
2013-07-23 09:13:00,75.9,57.6,29.90,NW,326,1.0,4.0,53,0.00,,---,0.00,VWS V14.01,2013-07-23 16:13:00,
2013-07-23 09:15:00,76.2,57.8,29.90,NW,325,0.0,4.0,53,0.00,,---,0.00,VWS V14.01,2013-07-23 16:15:00,
2013-07-23 09:18:00,76.6,57.7,29.91,NW,325,0.0,5.0,52,0.00,,---,0.00,VWS V14.01,2013-07-23 16:18:00,
2013-07-23 09:23:00,77.2,58.2,29.91,NW,324,0.0,5.0,52,0.00,,---,0.00,VWS V14.01,2013-07-23 16:23:00,
2013-07-23 09:28:00,77.8,57.1,29.91,WNW,290,1.0,5.0,49,0.00,,---,0.00,VWS V14.01,2013-07-23 16:28:00,
2013-07-23 09:30:00,78.0,57.3,29.91,West,259,0.0,5.0,49,0.00,,---,0.00,VWS V14.01,2013-07-23 16:30:00,
2013-07-23 09:33:00,78.0,57.3,29.91,West,259,0.0,1.0,49,0.00,,---,0.00,VWS V14.01,2013-07-23 16:33:00,
2013-07-23 09:38:00,78.3,58.7,29.90,WSW,250,0.0,4.0,51,0.00,,---,0.00,VWS V14.01,2013-07-23 16:38:00,
2013-07-23 09:43:00,78.8,59.2,29.91,WSW,250,0.0,4.0,51,0.00,,---,0.00,VWS V14.01,2013-07-23 16:43:00,
2013-07-23 09:45:00,79.0,59.9,29.91,WSW,250,0.0,4.0,52,0.00,,---,0.00,VWS V14.01,2013-07-23 16:45:00,
2013-07-23 09:48:00,79.2,60.1,29.90,WSW,250,0.0,1.0,52,0.00,,---,0.00,VWS V14.01,2013-07-23 16:48:00,
2013-07-23 09:53:00,79.6,60.4,29.90,WSW,250,0.0,2.0,52,0.00,,---,0.00,VWS V14.01,2013-07-23 16:53:00,
2013-07-23 09:58:00,80.0,59.7,29.90,WSW,250,2.0,3.0,50,0.00,,---,0.00,VWS V14.01,2013-07-23 16:58:00,
2013-07-23 10:00:00,80.4,59.5,29.90,WSW,250,0.0,3.0,49,0.00,,---,0.00,VWS V14.01,2013-07-23 17:00:00,
2013-07-23 10:03:00,80.7,59.8,29.91,WSW,250,0.0,0.0,49,0.00,,---,0.00,VWS V14.01,2013-07-23 17:03:00,
2013-07-23 10:08:00,81.1,59.6,29.90,SW,236,0.0,4.0,48,0.00,,---,0.00,VWS V14.01,2013-07-23 17:08:00,
2013-07-23 10:13:00,81.6,59.4,29.91,SW,233,1.0,4.0,47,0.00,,---,0.00,VWS V14.01,2013-07-23 17:13:00,
2013-07-23 10:15:00,82.0,59.2,29.90,SW,226,0.0,5.0,46,0.00,,---,0.00,VWS V14.01,2013-07-23 17:15:00,
2013-07-23 10:18:00,82.3,58.9,29.91,SW,226,1.0,2.0,45,0.00,,---,0.00,VWS V14.01,2013-07-23 17:18:00,
2013-07-23 10:23:00,82.5,59.0,29.91,SW,226,0.0,2.0,45,0.00,,---,0.00,VWS V14.01,2013-07-23 17:23:00,
2013-07-23 10:28:00,82.9,58.8,29.91,SW,226,0.0,2.0,44,0.00,,---,0.00,VWS V14.01,2013-07-23 17:28:00,
2013-07-23 10:30:00,83.0,59.5,29.91,SW,226,0.0,2.0,45,0.00,,---,0.00,VWS V14.01,2013-07-23 17:30:00,
2013-07-23 10:33:00,83.1,60.2,29.91,SW,222,2.0,2.0,46,0.00,,---,0.00,VWS V14.01,2013-07-23 17:33:00,
2013-07-23 10:38:00,83.4,59.2,29.91,SW,217,0.0,5.0,44,0.00,,---,0.00,VWS V14.01,2013-07-23 17:38:00,
2013-07-23 10:43:00,83.6,60.0,29.91,SSW,192,3.0,5.0,45,0.00,,---,0.00,VWS V14.01,2013-07-23 17:43:00,
2013-07-23 10:45:00,83.8,60.2,29.91,South,176,0.0,5.0,45,0.00,,---,0.00,VWS V14.01,2013-07-23 17:45:00,
2013-07-23 10:48:00,83.8,59.6,29.91,South,176,0.0,5.0,44,0.00,,---,0.00,VWS V14.01,2013-07-23 17:48:00,
2013-07-23 10:53:00,83.8,59.6,29.91,South,184,5.0,8.0,44,0.00,,---,0.00,VWS V14.01,2013-07-23 17:53:00,
2013-07-23 10:58:00,83.9,59.7,29.91,South,183,1.0,8.0,44,0.00,,---,0.00,VWS V14.01,2013-07-23 17:58:00,
2013-07-23 11:00:00,84.2,59.3,29.91,South,188,5.0,8.0,43,0.00,,---,0.00,VWS V14.01,2013-07-23 18:00:00,
2013-07-23 11:03:00,84.4,59.5,29.91,South,188,1.0,5.0,43,0.00,,---,0.00,VWS V14.01,2013-07-23 18:03:00,
2013-07-23 11:08:00,84.7,59.8,29.91,South,180,2.0,6.0,43,0.00,,---,0.00,VWS V14.01,2013-07-23 18:08:00,
2013-07-23 11:13:00,85.3,59.6,29.91,SE,130,0.0,6.0,42,0.00,,---,0.00,VWS V14.01,2013-07-23 18:13:00,
2013-07-23 11:15:00,85.5,59.1,29.91,SSE,165,2.0,6.0,41,0.00,,---,0.00,VWS V14.01,2013-07-23 18:15:00,
2013-07-23 11:18:00,85.6,58.5,29.91,South,184,1.0,6.0,40,0.00,,---,0.00,VWS V14.01,2013-07-23 18:18:00,
2013-07-23 11:23:00,85.6,58.5,29.91,South,174,5.0,7.0,40,0.00,,---,0.00,VWS V14.01,2013-07-23 18:23:00,
2013-07-23 11:28:00,85.5,59.1,29.90,South,170,7.0,8.0,41,0.00,,---,0.00,VWS V14.01,2013-07-23 18:28:00,
2013-07-23 11:30:00,85.7,60.0,29.90,SE,141,8.0,8.0,42,0.00,,---,0.00,VWS V14.01,2013-07-23 18:30:00,
2013-07-23 11:33:00,86.0,58.9,29.90,South,170,5.0,8.0,40,0.00,,---,0.00,VWS V14.01,2013-07-23 18:33:00,
2013-07-23 11:38:00,86.6,58.7,29.90,SSW,192,2.0,9.0,39,0.00,,---,0.00,VWS V14.01,2013-07-23 18:38:00,
2013-07-23 11:44:00,86.9,59.0,29.90,SSE,165,1.0,9.0,39,0.00,,---,0.00,VWS V14.01,2013-07-23 18:44:00,
2013-07-23 11:45:00,86.9,59.0,29.90,SSE,155,6.0,9.0,39,0.00,,---,0.00,VWS V14.01,2013-07-23 18:45:00,
2013-07-23 11:49:00,86.9,59.0,29.90,SE,136,4.0,6.0,39,0.00,,---,0.00,VWS V14.01,2013-07-23 18:49:00,
2013-07-23 11:54:00,87.3,59.3,29.90,SE,137,4.0,9.0,39,0.00,,---,0.00,VWS V14.01,2013-07-23 18:54:00,
2013-07-23 11:59:00,87.8,60.5,29.90,SSE,159,1.0,10.0,40,0.00,,---,0.00,VWS V14.01,2013-07-23 18:59:00,
2013-07-23 12:00:00,88.0,60.0,29.90,SSE,160,8.0,10.0,39,0.00,,---,0.00,VWS V14.01,2013-07-23 19:00:00,
2013-07-23 12:04:00,88.1,58.6,29.90,South,175,5.0,9.0,37,0.00,,---,0.00,VWS V14.01,2013-07-23 19:04:00,
2013-07-23 12:09:00,87.9,59.2,29.90,South,188,3.0,9.0,38,0.00,,---,0.00,VWS V14.01,2013-07-23 19:09:00,
2013-07-23 12:14:00,87.3,61.4,29.90,South,180,5.0,11.0,42,0.00,,---,0.00,VWS V14.01,2013-07-23 19:14:00,
2013-07-23 12:15:00,87.1,59.9,29.90,South,169,7.0,11.0,40,0.00,,---,0.00,VWS V14.01,2013-07-23 19:15:00,
2013-07-23 12:19:00,86.7,60.9,29.90,SSE,154,8.0,9.0,42,0.00,,---,0.00,VWS V14.01,2013-07-23 19:19:00,
2013-07-23 12:24:00,86.3,60.5,29.90,SSE,163,5.0,10.0,42,0.00,,---,0.00,VWS V14.01,2013-07-23 19:24:00,
2013-07-23 12:30:00,85.8,60.1,29.90,SSE,152,8.0,11.0,42,0.00,,---,0.00,VWS V14.01,2013-07-23 19:30:00,
2013-07-23 12:35:00,85.6,60.6,29.90,SSE,148,5.0,12.0,43,0.00,,---,0.00,VWS V14.01,2013-07-23 19:35:00,
2013-07-23 12:40:00,85.6,61.2,29.90,SE,144,5.0,12.0,44,0.00,,---,0.00,VWS V14.01,2013-07-23 19:40:00,
2013-07-23 12:45:00,85.6,60.6,29.90,SSE,153,2.0,12.0,43,0.00,,---,0.00,VWS V14.01,2013-07-23 19:45:00,
2013-07-23 12:50:00,85.7,60.7,29.90,SE,140,10.0,10.0,43,0.00,,---,0.00,VWS V14.01,2013-07-23 19:50:00,
2013-07-23 12:55:00,85.9,60.2,29.90,SSE,157,4.0,10.0,42,0.00,,---,0.00,VWS V14.01,2013-07-23 19:55:00,
2013-07-23 13:00:00,85.9,60.2,29.90,SE,134,6.0,10.0,42,0.00,,---,0.00,VWS V14.01,2013-07-23 20:00:00,
2013-07-23 13:05:00,86.1,60.3,29.89,SE,141,2.0,9.0,42,0.00,,---,0.00,VWS V14.01,2013-07-23 20:05:00,
2013-07-23 13:10:00,86.3,60.5,29.89,SE,140,8.0,10.0,42,0.00,,---,0.00,VWS V14.01,2013-07-23 20:10:00,
2013-07-23 13:15:00,86.6,60.1,29.89,SE,139,4.0,10.0,41,0.00,,---,0.00,VWS V14.01,2013-07-23 20:15:00,
2013-07-23 13:20:00,87.2,60.0,29.89,ESE,123,11.0,12.0,40,0.00,,---,0.00,VWS V14.01,2013-07-23 20:20:00,
2013-07-23 13:25:00,87.7,59.0,29.89,SE,126,8.0,12.0,38,0.00,,---,0.00,VWS V14.01,2013-07-23 20:25:00,
2013-07-23 13:30:00,88.1,58.6,29.89,SSE,156,7.0,12.0,37,0.00,,---,0.00,VWS V14.01,2013-07-23 20:30:00,
2013-07-23 13:35:00,88.4,58.8,29.89,SE,146,4.0,12.0,37,0.00,,---,0.00,VWS V14.01,2013-07-23 20:35:00,
2013-07-23 13:40:00,88.7,59.1,29.89,SE,136,10.0,12.0,37,0.00,,---,0.00,VWS V14.01,2013-07-23 20:40:00,
2013-07-23 13:45:00,89.1,56.3,29.89,South,170,2.0,12.0,33,0.00,,---,0.00,VWS V14.01,2013-07-23 20:45:00,
2013-07-23 13:50:00,89.7,56.0,29.89,SSE,150,5.0,11.0,32,0.00,,---,0.00,VWS V14.01,2013-07-23 20:50:00,
2013-07-23 13:55:00,90.5,56.6,29.88,SE,141,10.0,13.0,32,0.00,,---,0.00,VWS V14.01,2013-07-23 20:55:00,
2013-07-23 14:00:00,91.2,57.2,29.88,South,185,13.0,13.0,32,0.00,,---,0.00,VWS V14.01,2013-07-23 21:00:00,
2013-07-23 14:05:00,91.9,58.7,29.88,SSE,157,7.0,12.0,33,0.00,,---,0.00,VWS V14.01,2013-07-23 21:05:00,
2013-07-23 14:10:00,92.1,57.2,29.88,SSE,168,2.0,12.0,31,0.00,,---,0.00,VWS V14.01,2013-07-23 21:10:00,
2013-07-23 14:15:00,92.7,58.5,29.88,SSE,158,9.0,14.0,32,0.00,,---,0.00,VWS V14.01,2013-07-23 21:15:00,
2013-07-23 14:16:00,92.6,57.6,29.88,SSE,159,9.0,14.0,31,0.00,,---,0.00,VWS V14.01,2013-07-23 21:16:00,
2013-07-23 14:21:00,93.1,57.1,29.88,SE,133,6.0,14.0,30,0.00,,---,0.00,VWS V14.01,2013-07-23 21:21:00,
2013-07-23 14:26:00,93.6,56.6,29.88,South,180,11.0,14.0,29,0.00,,---,0.00,VWS V14.01,2013-07-23 21:26:00,
2013-07-23 14:30:00,93.9,54.9,29.88,SSE,166,8.0,14.0,27,0.00,,---,0.00,VWS V14.01,2013-07-23 21:30:00,
2013-07-23 14:31:00,93.9,55.9,29.88,SSE,161,9.0,14.0,28,0.00,,---,0.00,VWS V14.01,2013-07-23 21:31:00,
2013-07-23 14:36:00,94.0,56.0,29.88,SSE,161,6.0,11.0,28,0.00,,---,0.00,VWS V14.01,2013-07-23 21:36:00,
2013-07-23 14:41:00,93.9,54.9,29.87,South,170,6.0,13.0,27,0.00,,---,0.00,VWS V14.01,2013-07-23 21:41:00,
2013-07-23 14:45:00,93.7,54.7,29.87,SSW,193,9.0,13.0,27,0.00,,---,0.00,VWS V14.01,2013-07-23 21:45:00,
2013-07-23 14:46:00,93.7,54.7,29.87,South,186,9.0,9.0,27,0.00,,---,0.00,VWS V14.01,2013-07-23 21:46:00,
2013-07-23 14:51:00,93.3,56.3,29.87,South,170,7.0,12.0,29,0.00,,---,0.00,VWS V14.01,2013-07-23 21:51:00,
2013-07-23 14:56:00,92.8,56.8,29.87,SSE,157,8.0,14.0,30,0.00,,---,0.00,VWS V14.01,2013-07-23 21:56:00,
2013-07-23 15:00:00,92.5,56.6,29.87,South,172,8.0,14.0,30,0.00,,---,0.00,VWS V14.01,2013-07-23 22:00:00,
2013-07-23 15:02:00,92.5,57.5,29.87,SSE,160,6.0,9.0,31,0.00,,---,0.00,VWS V14.01,2013-07-23 22:02:00,
2013-07-23 15:07:00,92.4,53.6,29.87,SSE,155,6.0,12.0,27,0.00,,---,0.00,VWS V14.01,2013-07-23 22:07:00,
2013-07-23 15:12:00,92.3,56.4,29.87,SE,136,10.0,12.0,30,0.00,,---,0.00,VWS V14.01,2013-07-23 22:12:00,
2013-07-23 15:15:00,92.4,58.3,29.87,SSE,153,6.0,13.0,32,0.00,,---,0.00,VWS V14.01,2013-07-23 22:15:00,
2013-07-23 15:17:00,92.5,58.4,29.86,SE,140,11.0,12.0,32,0.00,,---,0.00,VWS V14.01,2013-07-23 22:17:00,
2013-07-23 15:22:00,92.6,56.7,29.86,South,171,7.0,12.0,30,0.00,,---,0.00,VWS V14.01,2013-07-23 22:22:00,
2013-07-23 15:27:00,92.5,51.6,29.86,South,184,9.0,12.0,25,0.00,,---,0.00,VWS V14.01,2013-07-23 22:27:00,
2013-07-23 15:30:00,92.3,55.5,29.86,SSE,168,8.0,12.0,29,0.00,,---,0.00,VWS V14.01,2013-07-23 22:30:00,
2013-07-23 15:32:00,92.3,55.5,29.86,South,171,7.0,9.0,29,0.00,,---,0.00,VWS V14.01,2013-07-23 22:32:00,
2013-07-23 15:37:00,92.7,57.7,29.86,SSE,150,8.0,11.0,31,0.00,,---,0.00,VWS V14.01,2013-07-23 22:37:00,
2013-07-23 15:42:00,93.3,58.2,29.85,SSE,167,7.0,13.0,31,0.00,,---,0.00,VWS V14.01,2013-07-23 22:42:00,
2013-07-23 15:45:00,93.5,56.5,29.85,SSE,154,7.0,13.0,29,0.00,,---,0.00,VWS V14.01,2013-07-23 22:45:00,
2013-07-23 15:47:00,93.6,55.6,29.85,South,169,5.0,8.0,28,0.00,,---,0.00,VWS V14.01,2013-07-23 22:47:00,
2013-07-23 15:52:00,93.9,56.8,29.85,SSE,155,5.0,10.0,29,0.00,,---,0.00,VWS V14.01,2013-07-23 22:52:00,
2013-07-23 15:58:00,94.4,57.3,29.85,SSE,150,8.0,11.0,29,0.00,,---,0.00,VWS V14.01,2013-07-23 22:58:00,
2013-07-23 16:00:00,94.6,58.4,29.85,SSE,153,9.0,11.0,30,0.00,,---,0.00,VWS V14.01,2013-07-23 23:00:00,
2013-07-23 16:03:00,94.8,58.6,29.85,SSE,149,10.0,14.0,30,0.00,,---,0.00,VWS V14.01,2013-07-23 23:03:00,
2013-07-23 16:08:00,95.1,57.9,29.85,SE,145,7.0,14.0,29,0.00,,---,0.00,VWS V14.01,2013-07-23 23:08:00,
2013-07-23 16:13:00,95.1,54.9,29.85,South,178,5.0,14.0,26,0.00,,---,0.00,VWS V14.01,2013-07-23 23:13:00,
2013-07-23 16:15:00,95.1,58.8,29.85,SSE,153,9.0,14.0,30,0.00,,---,0.00,VWS V14.01,2013-07-23 23:15:00,
2013-07-23 16:18:00,95.0,58.7,29.84,SSE,167,4.0,10.0,30,0.00,,---,0.00,VWS V14.01,2013-07-23 23:18:00,
2013-07-23 16:23:00,95.1,59.7,29.84,SSE,149,8.0,12.0,31,0.00,,---,0.00,VWS V14.01,2013-07-23 23:23:00,
2013-07-23 16:28:00,94.4,60.9,29.84,South,186,9.0,12.0,33,0.00,,---,0.00,VWS V14.01,2013-07-23 23:28:00,
2013-07-23 16:30:00,93.4,59.2,29.84,South,181,8.0,12.0,32,0.00,,---,0.00,VWS V14.01,2013-07-23 23:30:00,
2013-07-23 16:34:00,92.5,60.9,29.84,SSE,165,6.0,9.0,35,0.00,,---,0.00,VWS V14.01,2013-07-23 23:34:00,
2013-07-23 16:39:00,91.7,61.0,29.84,SE,146,9.0,11.0,36,0.00,,---,0.00,VWS V14.01,2013-07-23 23:39:00,
2013-07-23 16:44:00,91.1,61.2,29.84,SSE,149,5.0,12.0,37,0.00,,---,0.00,VWS V14.01,2013-07-23 23:44:00,
2013-07-23 16:45:00,90.9,61.8,29.84,SSE,164,7.0,12.0,38,0.00,,---,0.00,VWS V14.01,2013-07-23 23:45:00,
2013-07-23 16:49:00,90.6,61.5,29.84,SSE,156,5.0,10.0,38,0.00,,---,0.00,VWS V14.01,2013-07-23 23:49:00,
2013-07-23 16:54:00,90.2,60.4,29.84,SSE,166,7.0,14.0,37,0.00,,---,0.00,VWS V14.01,2013-07-23 23:54:00,
2013-07-23 16:59:00,90.1,61.1,29.83,SSE,153,8.0,15.0,38,0.00,,---,0.00,VWS V14.01,2013-07-23 23:59:00,
2013-07-23 17:00:00,90.0,61.7,29.83,SSE,160,10.0,15.0,39,0.00,,---,0.00,VWS V14.01,2013-07-24 00:00:00,
2013-07-23 17:04:00,90.0,62.5,29.83,SSE,161,9.0,14.0,40,0.00,,---,0.00,VWS V14.01,2013-07-24 00:04:00,
2013-07-23 17:09:00,90.1,62.5,29.83,SSE,161,8.0,15.0,40,0.00,,---,0.00,VWS V14.01,2013-07-24 00:09:00,
2013-07-23 17:14:00,90.0,62.5,29.83,SSE,163,7.0,15.0,40,0.00,,---,0.00,VWS V14.01,2013-07-24 00:14:00,
2013-07-23 17:15:00,90.0,63.2,29.82,SSE,163,6.0,15.0,41,0.00,,---,0.00,VWS V14.01,2013-07-24 00:15:00,
2013-07-23 17:20:00,90.1,62.5,29.82,SSE,160,10.0,13.0,40,0.00,,---,0.00,VWS V14.01,2013-07-24 00:20:00,
2013-07-23 17:25:00,90.4,64.2,29.82,SSE,159,6.0,13.0,42,0.00,,---,0.00,VWS V14.01,2013-07-24 00:25:00,
2013-07-23 17:30:00,90.6,64.4,29.82,SSE,160,8.0,13.0,42,0.00,,---,0.00,VWS V14.01,2013-07-24 00:30:00,
2013-07-23 17:35:00,90.7,63.1,29.82,SE,145,10.0,14.0,40,0.00,,---,0.00,VWS V14.01,2013-07-24 00:35:00,
2013-07-23 17:40:00,90.6,63.7,29.82,SSE,148,8.0,14.0,41,0.00,,---,0.00,VWS V14.01,2013-07-24 00:40:00,
2013-07-23 17:45:00,90.3,62.0,29.82,SE,144,11.0,14.0,39,0.00,,---,0.00,VWS V14.01,2013-07-24 00:45:00,
2013-07-23 17:50:00,90.1,61.8,29.82,SSE,149,6.0,12.0,39,0.00,,---,0.00,VWS V14.01,2013-07-24 00:50:00,
2013-07-23 17:55:00,89.7,61.5,29.82,SSE,157,4.0,12.0,39,0.00,,---,0.00,VWS V14.01,2013-07-24 00:55:00,
2013-07-23 18:00:00,89.6,61.4,29.82,SSE,162,5.0,12.0,39,0.00,,---,0.00,VWS V14.01,2013-07-24 01:00:00,
2013-07-23 18:05:00,89.7,62.2,29.82,South,176,7.0,11.0,40,0.00,,---,0.00,VWS V14.01,2013-07-24 01:05:00,
2013-07-23 18:10:00,90.1,61.8,29.82,South,179,4.0,13.0,39,0.00,,---,0.00,VWS V14.01,2013-07-24 01:10:00,
2013-07-23 18:15:00,90.2,61.9,29.82,SSE,165,9.0,13.0,39,0.00,,---,0.00,VWS V14.01,2013-07-24 01:15:00,
2013-07-23 18:20:00,90.1,63.2,29.82,SSE,151,8.0,11.0,41,0.00,,---,0.00,VWS V14.01,2013-07-24 01:20:00,
2013-07-23 18:25:00,90.0,61.0,29.82,SSE,159,8.0,12.0,38,0.00,,---,0.00,VWS V14.01,2013-07-24 01:25:00,
2013-07-23 18:30:00,89.8,61.6,29.82,SE,144,9.0,12.0,39,0.00,,---,0.00,VWS V14.01,2013-07-24 01:30:00,
2013-07-23 18:31:00,89.8,61.6,29.82,SE,144,7.0,12.0,39,0.00,,---,0.00,VWS V14.01,2013-07-24 01:31:00,
2013-07-23 18:36:00,89.5,61.3,29.82,SSE,148,10.0,11.0,39,0.00,,---,0.00,VWS V14.01,2013-07-24 01:36:00,
2013-07-23 18:41:00,89.3,61.8,29.82,SSE,156,5.0,11.0,40,0.00,,---,0.00,VWS V14.01,2013-07-24 01:41:00,
2013-07-23 18:45:00,88.9,62.2,29.82,SE,142,9.0,11.0,41,0.00,,---,0.00,VWS V14.01,2013-07-24 01:45:00,
2013-07-23 18:46:00,88.9,61.5,29.82,SE,140,8.0,11.0,40,0.00,,---,0.00,VWS V14.01,2013-07-24 01:46:00,
2013-07-23 18:51:00,88.4,61.0,29.82,SSE,164,5.0,12.0,40,0.00,,---,0.00,VWS V14.01,2013-07-24 01:51:00,
2013-07-23 18:56:00,87.7,61.1,29.82,SSE,153,6.0,12.0,41,0.00,,---,0.00,VWS V14.01,2013-07-24 01:56:00,
2013-07-23 19:00:00,87.1,61.9,29.82,SE,146,7.0,12.0,43,0.00,,---,0.00,VWS V14.01,2013-07-24 02:00:00,
2013-07-23 19:01:00,87.1,61.9,29.82,SE,146,7.0,12.0,43,0.00,,---,0.00,VWS V14.01,2013-07-24 02:01:00,
2013-07-23 19:06:00,86.5,61.4,29.82,SE,141,6.0,9.0,43,0.00,,---,0.00,VWS V14.01,2013-07-24 02:06:00,
2013-07-23 19:11:00,85.9,61.5,29.82,SE,142,5.0,9.0,44,0.00,,---,0.00,VWS V14.01,2013-07-24 02:11:00,
2013-07-23 19:15:00,85.3,60.3,29.82,South,171,4.0,9.0,43,0.00,,---,0.00,VWS V14.01,2013-07-24 02:15:00,
2013-07-23 19:16:00,85.3,60.3,29.82,South,171,5.0,5.0,43,0.00,,---,0.00,VWS V14.01,2013-07-24 02:16:00,
2013-07-23 19:21:00,84.8,61.7,29.82,SE,135,4.0,7.0,46,0.00,,---,0.00,VWS V14.01,2013-07-24 02:21:00,
2013-07-23 19:26:00,84.3,61.3,29.82,SSE,151,6.0,7.0,46,0.00,,---,0.00,VWS V14.01,2013-07-24 02:26:00,
2013-07-23 19:30:00,83.9,60.9,29.82,SE,133,5.0,7.0,46,0.00,,---,0.00,VWS V14.01,2013-07-24 02:30:00,
2013-07-23 19:31:00,83.9,60.9,29.82,SE,133,5.0,6.0,46,0.00,,---,0.00,VWS V14.01,2013-07-24 02:31:00,
2013-07-23 19:36:00,83.4,60.5,29.82,SE,126,1.0,6.0,46,0.00,,---,0.00,VWS V14.01,2013-07-24 02:36:00,
2013-07-23 19:41:00,82.9,61.8,29.82,ESE,121,5.0,6.0,49,0.00,,---,0.00,VWS V14.01,2013-07-24 02:41:00,
2013-07-23 19:45:00,82.4,62.5,29.82,SE,127,5.0,8.0,51,0.00,,---,0.00,VWS V14.01,2013-07-24 02:45:00,
2013-07-23 19:46:00,82.3,62.4,29.82,SE,127,6.0,6.0,51,0.00,,---,0.00,VWS V14.01,2013-07-24 02:46:00,
2013-07-23 19:51:00,81.6,60.6,29.83,SE,134,5.0,7.0,49,0.00,,---,0.00,VWS V14.01,2013-07-24 02:51:00,
2013-07-23 19:56:00,81.0,60.6,29.82,SE,132,4.0,7.0,50,0.00,,---,0.00,VWS V14.01,2013-07-24 02:56:00,
2013-07-23 20:00:00,80.6,60.8,29.82,SE,132,2.0,7.0,51,0.00,,---,0.00,VWS V14.01,2013-07-24 03:00:00,
2013-07-23 20:01:00,80.5,60.7,29.82,SE,132,2.0,4.0,51,0.00,,---,0.00,VWS V14.01,2013-07-24 03:01:00,
2013-07-23 20:07:00,80.1,60.9,29.82,SE,132,2.0,4.0,52,0.00,,---,0.00,VWS V14.01,2013-07-24 03:07:00,
2013-07-23 20:12:00,79.7,60.0,29.82,South,186,0.0,4.0,51,0.00,,---,0.00,VWS V14.01,2013-07-24 03:12:00,
2013-07-23 20:15:00,79.4,59.7,29.82,SSE,163,1.0,4.0,51,0.00,,---,0.00,VWS V14.01,2013-07-24 03:15:00,
2013-07-23 20:17:00,79.3,59.6,29.82,SSE,161,2.0,4.0,51,0.00,,---,0.00,VWS V14.01,2013-07-24 03:17:00,
2013-07-23 20:22:00,78.9,60.3,29.82,SSE,149,4.0,6.0,53,0.00,,---,0.00,VWS V14.01,2013-07-24 03:22:00,
2013-07-23 20:27:00,78.5,60.5,29.82,SSE,148,2.0,6.0,54,0.00,,---,0.00,VWS V14.01,2013-07-24 03:27:00,
2013-07-23 20:30:00,78.2,60.7,29.82,SE,140,1.0,6.0,55,0.00,,---,0.00,VWS V14.01,2013-07-24 03:30:00,
2013-07-23 20:32:00,78.0,60.0,29.82,South,170,0.0,2.0,54,0.00,,---,0.00,VWS V14.01,2013-07-24 03:32:00,
2013-07-23 20:37:00,77.6,59.7,29.82,SSE,163,0.0,4.0,54,0.00,,---,0.00,VWS V14.01,2013-07-24 03:37:00,
2013-07-23 20:42:00,77.2,59.3,29.82,SSE,157,1.0,4.0,54,0.00,,---,0.00,VWS V14.01,2013-07-24 03:42:00,
2013-07-23 20:45:00,76.9,59.5,29.82,SSE,154,0.0,4.0,55,0.00,,---,0.00,VWS V14.01,2013-07-24 03:45:00,
2013-07-23 20:47:00,76.8,59.4,29.82,SSE,153,1.0,1.0,55,0.00,,---,0.00,VWS V14.01,2013-07-24 03:47:00,
2013-07-23 20:52:00,76.4,58.5,29.83,ESE,119,4.0,5.0,54,0.00,,---,0.00,VWS V14.01,2013-07-24 03:52:00,
2013-07-23 20:57:00,76.0,58.7,29.83,ESE,115,1.0,6.0,55,0.00,,---,0.00,VWS V14.01,2013-07-24 03:57:00,
2013-07-23 21:00:00,75.7,58.4,29.83,ESE,113,0.0,6.0,55,0.00,,---,0.00,VWS V14.01,2013-07-24 04:00:00,
2013-07-23 21:01:00,75.8,58.5,29.83,ESE,113,0.0,6.0,55,0.00,,---,0.00,VWS V14.01,2013-07-24 04:01:00,
2013-07-23 21:06:00,75.4,58.1,29.83,ESE,114,4.0,5.0,55,0.00,,---,0.00,VWS V14.01,2013-07-24 04:06:00,
2013-07-23 21:11:00,75.1,59.3,29.83,ESE,115,2.0,6.0,58,0.00,,---,0.00,VWS V14.01,2013-07-24 04:11:00,
2013-07-23 21:15:00,74.7,59.4,29.83,ESE,114,0.0,6.0,59,0.00,,---,0.00,VWS V14.01,2013-07-24 04:15:00,
2013-07-23 21:16:00,74.7,59.4,29.83,ESE,114,1.0,6.0,59,0.00,,---,0.00,VWS V14.01,2013-07-24 04:16:00,
2013-07-23 21:21:00,74.2,59.0,29.83,ESE,119,4.0,6.0,59,0.00,,---,0.00,VWS V14.01,2013-07-24 04:21:00,
2013-07-23 21:26:00,73.7,58.5,29.83,ESE,115,1.0,6.0,59,0.00,,---,0.00,VWS V14.01,2013-07-24 04:26:00,
2013-07-23 21:30:00,73.2,57.1,29.83,ESE,102,4.0,6.0,57,0.00,,---,0.00,VWS V14.01,2013-07-24 04:30:00,
2013-07-23 21:31:00,73.2,57.1,29.83,East,88,0.0,6.0,57,0.00,,---,0.00,VWS V14.01,2013-07-24 04:31:00,
2013-07-23 21:36:00,72.9,57.8,29.83,East,93,4.0,5.0,59,0.00,,---,0.00,VWS V14.01,2013-07-24 04:36:00,
2013-07-23 21:41:00,72.7,57.6,29.83,East,86,2.0,5.0,59,0.00,,---,0.00,VWS V14.01,2013-07-24 04:41:00,
2013-07-23 21:45:00,72.5,57.8,29.83,East,86,3.0,5.0,60,0.00,,---,0.00,VWS V14.01,2013-07-24 04:45:00,
2013-07-23 21:46:00,72.5,57.8,29.83,East,87,1.0,5.0,60,0.00,,---,0.00,VWS V14.01,2013-07-24 04:46:00,
2013-07-23 21:51:00,72.3,58.1,29.83,East,89,2.0,3.0,61,0.00,,---,0.00,VWS V14.01,2013-07-24 04:51:00,
2013-07-23 21:56:00,72.1,58.8,29.84,East,100,0.0,5.0,63,0.00,,---,0.00,VWS V14.01,2013-07-24 04:56:00,
2013-07-23 22:00:00,71.7,58.5,29.84,ESE,111,1.0,6.0,63,0.00,,---,0.00,VWS V14.01,2013-07-24 05:00:00,
2013-07-23 22:01:00,71.7,58.0,29.84,ESE,111,0.0,6.0,62,0.00,,---,0.00,VWS V14.01,2013-07-24 05:01:00,
2013-07-23 22:06:00,71.3,57.6,29.84,ESE,113,1.0,5.0,62,0.00,,---,0.00,VWS V14.01,2013-07-24 05:06:00,
2013-07-23 22:15:00,70.6,57.4,29.84,ESE,112,2.0,7.0,63,0.00,,---,0.00,VWS V14.01,2013-07-24 05:15:00,
2013-07-23 22:30:00,69.9,57.2,29.84,East,90,1.0,6.0,64,0.00,,---,0.00,VWS V14.01,2013-07-24 05:30:00,
2013-07-23 22:45:00,69.2,56.5,29.84,ESE,112,1.0,6.0,64,0.00,,---,0.00,VWS V14.01,2013-07-24 05:45:00,
2013-07-23 23:00:00,68.5,56.3,29.84,ESE,112,2.0,6.0,65,0.00,,---,0.00,VWS V14.01,2013-07-24 06:00:00,
2013-07-23 23:15:00,67.9,56.1,29.84,ESE,112,1.0,6.0,66,0.00,,---,0.00,VWS V14.01,2013-07-24 06:15:00,
2013-07-23 23:30:00,67.5,55.8,29.84,ESE,112,1.0,5.0,66,0.00,,---,0.00,VWS V14.01,2013-07-24 06:30:00,
2013-07-23 23:45:00,67.3,56.0,29.84,East,90,2.0,7.0,67,0.00,,---,0.00,VWS V14.01,2013-07-24 06:45:00,